Time;durP1;ratioP1;P1;durP2;ratioP2;P2;SDS_P1;SDS_P2;PMS_P1;PMS_P2;Temp;Humidity;BMP_temperature;BMP_pressure;BME280_temperature;BME280_humidity;BME280_pressure;Samples;Min_cycle;Max_cycle;Signal;HPM_P1;HPM_P2
2022/07/01 00:00:25;;;;;;;2.60;0.90;;;19.60;86.60;;;20.21;54.57;98708.97;4980553;28;123025;-88
2022/07/01 00:02:52;;;;;;;1.13;0.90;;;19.60;86.70;;;20.21;54.95;98718.19;4979726;28;114500;-88
2022/07/01 00:05:19;;;;;;;2.00;1.00;;;19.70;87.00;;;20.22;54.69;98728.22;4978365;28;113136;-89
2022/07/01 00:07:46;;;;;;;1.40;1.00;;;19.70;87.10;;;20.23;55.01;98743.88;4981024;28;124653;-88
2022/07/01 00:10:13;;;;;;;1.30;0.90;;;19.70;87.50;;;20.22;54.93;98738.63;4978302;28;124504;-89
2022/07/01 00:12:40;;;;;;;1.73;1.00;;;19.60;87.40;;;20.17;54.89;98734.16;4976301;28;115343;-89
2022/07/01 00:15:07;;;;;;;2.97;1.10;;;19.60;87.20;;;20.10;54.90;98742.47;4978432;28;114088;-91
2022/07/01 00:17:34;;;;;;;1.20;0.80;;;19.60;87.10;;;20.05;54.74;98735.19;4978033;28;124525;-89
2022/07/01 00:20:02;;;;;;;1.80;1.00;;;19.60;87.10;;;19.98;54.77;98743.47;4974599;28;123498;-88
2022/07/01 00:22:29;;;;;;;1.43;1.00;;;19.50;86.80;;;19.93;54.46;98757.00;4991535;28;113580;-89
2022/07/01 00:24:55;;;;;;;1.87;1.10;;;19.50;86.70;;;19.87;54.49;98756.53;4977260;28;113537;-87
2022/07/01 00:27:22;;;;;;;1.50;0.90;;;19.40;86.50;;;19.79;54.50;98750.00;4988728;28;124224;-90
2022/07/01 00:29:48;;;;;;;1.87;1.17;;;19.40;86.40;;;19.75;54.62;98765.97;4985985;28;123982;-87
2022/07/01 00:32:15;;;;;;;1.40;1.00;;;19.30;86.40;;;19.71;54.18;98759.47;4987869;28;114536;-87
2022/07/01 00:34:41;;;;;;;1.20;1.10;;;19.20;86.20;;;19.64;54.18;98759.34;4975363;28;113294;-87
2022/07/01 00:37:08;;;;;;;1.10;0.87;;;19.20;86.00;;;19.58;54.24;98760.81;4975890;28;123826;-87
2022/07/01 00:39:36;;;;;;;1.50;1.00;;;19.10;86.00;;;19.54;54.29;98752.34;4977084;28;123920;-87
2022/07/01 00:42:04;;;;;;;1.00;0.90;;;19.10;86.10;;;19.53;54.41;98741.50;4974624;28;114380;-89
2022/07/01 00:44:31;;;;;;;1.63;0.90;;;19.10;86.40;;;19.52;54.66;98746.31;5001146;28;114161;-90
2022/07/01 00:47:02;;;;;;;1.83;0.70;;;19.00;86.30;;;19.48;54.40;98736.19;4985073;28;124606;-89
2022/07/01 00:49:30;;;;;;;1.30;0.97;;;19.00;86.30;;;19.44;54.48;98727.75;4977187;28;123800;-89
2022/07/01 00:51:57;;;;;;;1.00;0.90;;;19.00;86.40;;;19.43;54.59;98729.75;4964116;28;112345;-89
2022/07/01 00:54:24;;;;;;;0.90;0.80;;;18.90;86.50;;;19.45;54.53;98728.53;4976132;28;114908;-90
2022/07/01 00:56:50;;;;;;;0.90;0.80;;;18.90;86.70;;;19.46;54.67;98724.56;4985701;28;123810;-89
2022/07/01 00:59:17;;;;;;;0.87;0.70;;;18.90;86.80;;;19.45;54.74;98725.75;4975092;28;123671;-90
2022/07/01 01:01:44;;;;;;;1.00;0.80;;;18.90;86.80;;;19.42;54.70;98722.53;4986528;28;114781;-88
2022/07/01 01:04:10;;;;;;;1.53;1.00;;;20.50;88.40;;;19.40;54.75;98716.47;4971453;28;115162;-87
2022/07/01 01:06:37;;;;;;;1.50;0.83;;;18.90;87.00;;;19.37;54.96;98722.84;4978313;28;124249;-90
2022/07/01 01:09:04;;;;;;;0.90;0.80;;;18.90;87.10;;;19.34;55.04;98726.38;4975790;28;123234;-88
2022/07/01 01:11:31;;;;;;;1.30;0.90;;;18.80;87.20;;;19.31;55.15;98717.91;4982211;28;114306;-91
2022/07/01 01:13:58;;;;;;;1.20;1.00;;;18.80;87.30;;;19.26;54.94;98709.81;4979091;28;114656;-89
2022/07/01 01:16:25;;;;;;;1.07;0.87;;;18.80;87.30;;;19.18;55.21;98703.25;4985790;28;123723;-89
2022/07/01 01:18:52;;;;;;;1.73;1.20;;;18.70;87.30;;;19.12;55.33;98705.56;4984570;28;124055;-87
2022/07/01 01:21:18;;;;;;;1.30;0.90;;;18.70;87.40;;;19.09;55.56;98716.72;4982935;28;114329;-86
2022/07/01 01:23:45;;;;;;;0.97;0.87;;;18.60;87.60;;;19.06;55.40;98720.25;4985302;28;114004;-88
2022/07/01 01:26:21;;;;;;;1.53;0.90;;;18.60;87.80;;;19.03;55.73;98707.81;4970130;28;124223;-87
2022/07/01 01:28:50;;;;;;;1.43;0.90;;;18.60;87.90;;;18.95;55.69;98706.84;4973526;28;124100;-90
2022/07/01 01:31:17;;;;;;;1.40;0.90;;;18.50;88.10;;;18.89;56.00;98708.34;4981418;28;113524;-89
2022/07/01 01:33:45;;;;;;;1.30;0.90;;;18.40;88.20;;;18.80;55.89;98710.53;4985157;28;113448;-90
2022/07/01 01:36:12;;;;;;;1.07;0.97;;;18.40;88.30;;;18.72;56.08;98700.34;4972193;28;124654;-89
2022/07/01 01:38:38;;;;;;;1.83;1.00;;;18.30;88.30;;;18.66;56.16;98705.44;4983412;28;123754;-88
2022/07/01 01:41:05;;;;;;;1.00;0.90;;;18.30;88.40;;;18.60;56.16;98689.34;4982962;28;114413;-88
2022/07/01 01:43:35;;;;;;;1.33;0.90;;;18.20;88.50;;;18.58;56.24;98684.09;4979053;28;114539;-87
2022/07/01 01:46:03;;;;;;;1.33;0.90;;;18.10;88.60;;;18.51;56.33;98687.56;4972994;28;123726;-91
2022/07/01 01:48:31;;;;;;;0.87;0.77;;;18.10;88.70;;;18.43;56.53;98679.38;4985499;28;124420;-89
2022/07/01 01:50:57;;;;;;;1.13;0.90;;;18.00;88.80;;;18.37;56.61;98669.66;4978662;28;115152;-89
2022/07/01 01:53:24;;;;;;;1.00;0.80;;;17.90;88.80;;;18.35;56.65;98675.66;4979008;28;114435;-90
2022/07/01 01:55:51;;;;;;;2.00;0.87;;;17.90;89.00;;;18.30;57.00;98665.53;4980724;28;124156;-89
2022/07/01 01:58:17;;;;;;;1.17;0.80;;;17.90;89.40;;;18.25;57.08;98651.84;4977289;28;124407;-87
2022/07/01 02:00:44;;;;;;;1.10;0.90;;;17.80;89.50;;;18.19;57.11;98641.31;4981703;28;114362;-90
2022/07/01 02:03:11;;;;;;;1.40;1.00;;;17.70;90.00;;;18.12;57.25;98630.78;4953538;28;113998;-91
2022/07/01 02:05:37;;;;;;;1.07;0.90;;;17.70;89.90;;;18.05;57.69;98625.88;4966736;28;124138;-91
2022/07/01 02:08:04;;;;;;;1.10;0.90;;;17.60;90.10;;;18.03;57.70;98628.22;4983185;28;124305;-90
2022/07/01 02:10:31;;;;;;;1.00;0.80;;;17.60;90.10;;;18.04;57.94;98629.81;4979848;28;113672;-90
2022/07/01 02:12:57;;;;;;;1.60;1.13;;;17.60;90.30;;;18.02;58.14;98626.59;4979611;28;113916;-90
2022/07/01 02:15:24;;;;;;;1.03;0.90;;;17.60;90.50;;;17.97;58.18;98621.28;4976184;28;124144;-91
2022/07/01 02:17:53;;;;;;;1.77;0.90;;;17.50;90.50;;;17.94;58.29;98610.84;4976125;28;123777;-90
2022/07/01 02:20:19;;;;;;;2.33;0.80;;;17.50;90.50;;;17.91;58.47;98611.56;4972609;28;114487;-91
2022/07/01 02:22:46;;;;;;;1.10;0.90;;;17.50;90.70;;;17.84;58.71;98617.81;4982640;28;116795;-90
2022/07/01 02:25:12;;;;;;;1.10;1.00;;;17.40;90.80;;;17.79;58.77;98614.50;4969208;28;125573;-90
2022/07/01 02:27:39;;;;;;;1.13;0.90;;;17.40;90.80;;;17.76;59.12;98612.38;4970550;28;124094;-91
2022/07/01 02:30:06;;;;;;;1.93;1.00;;;17.30;91.00;;;17.75;59.36;98610.78;4973782;28;114178;-91
2022/07/01 02:32:33;;;;;;;1.10;1.00;;;17.30;91.20;;;17.71;59.28;98615.50;4974732;28;114740;-91
2022/07/01 02:34:59;;;;;;;2.10;1.00;;;17.20;91.10;;;17.68;59.55;98628.22;4967555;28;124317;-91
2022/07/01 02:37:27;;;;;;;1.40;1.10;;;17.20;91.30;;;17.63;59.71;98642.47;4977940;28;123830;-91
2022/07/01 02:39:53;;;;;;;1.20;1.10;;;17.20;91.50;;;17.58;59.80;98629.56;4976932;28;115499;-92
2022/07/01 02:42:23;;;;;;;1.60;1.00;;;17.20;91.60;;;17.54;60.00;98642.63;4972329;28;114893;-91
2022/07/01 02:44:49;;;;;;;1.00;0.90;;;17.10;91.60;;;17.53;59.98;98640.22;4968483;28;124524;-91
2022/07/01 02:47:16;;;;;;;1.27;0.90;;;17.10;91.70;;;17.55;59.94;98654.63;4970457;28;123302;-90
2022/07/01 02:49:42;;;;;;;1.20;1.03;;;17.10;91.70;;;17.58;59.97;98645.53;4978915;28;114752;-91
2022/07/01 02:52:09;;;;;;;1.67;1.10;;;17.10;91.80;;;17.58;59.83;98654.72;4993947;28;113921;-92
2022/07/01 02:54:36;;;;;;;1.20;0.83;;;17.10;91.80;;;17.60;59.95;98655.16;4982475;28;124364;-90
2022/07/01 02:57:03;;;;;;;1.80;1.10;;;17.10;91.80;;;17.61;59.82;98664.34;4969298;28;123597;-90
2022/07/01 02:59:29;;;;;;;2.70;1.23;;;17.10;91.90;;;17.59;59.83;98659.13;4977421;28;114791;-90
2022/07/01 03:01:56;;;;;;;1.30;1.00;;;17.10;91.90;;;17.62;59.85;98652.84;4975528;28;113784;-91
2022/07/01 03:04:22;;;;;;;1.37;1.00;;;17.10;91.80;;;17.63;59.75;98657.22;4968850;28;124037;-91
2022/07/01 03:06:49;;;;;;;1.70;1.20;;;17.10;91.80;;;17.69;59.57;98666.16;4970015;28;124316;-90
2022/07/01 03:09:15;;;;;;;1.53;1.30;;;17.10;91.90;;;17.70;59.49;98669.75;4969242;28;114237;-90
2022/07/01 03:11:42;;;;;;;1.20;1.10;;;17.10;91.80;;;17.70;59.63;98672.53;4969561;28;114140;-90
2022/07/01 03:14:08;;;;;;;2.43;1.30;;;17.10;91.80;;;17.73;59.29;98675.44;4979286;28;123512;-90
2022/07/01 03:16:35;;;;;;;2.30;1.63;;;17.20;91.80;;;17.75;59.38;98672.25;4972427;28;123634;-90
2022/07/01 03:19:02;;;;;;;1.73;1.47;;;17.20;91.80;;;17.74;59.81;98673.44;4975044;28;114378;-89
2022/07/01 03:21:28;;;;;;;2.90;1.77;;;17.20;92.00;;;17.75;59.54;98689.03;4974137;28;113010;-91
2022/07/01 03:23:54;;;;;;;2.43;1.20;;;17.20;91.90;;;17.79;59.23;98693.56;4975446;28;123853;-91
2022/07/01 03:26:21;;;;;;;1.60;1.03;;;17.20;91.90;;;17.81;59.27;98693.19;4977345;28;124035;-91
2022/07/01 03:28:48;;;;;;;1.90;1.10;;;17.20;91.80;;;17.82;59.13;98689.25;4973969;28;115376;-90
2022/07/01 03:31:14;;;;;;;1.40;1.20;;;17.30;91.80;;;17.87;58.93;98694.56;4983222;28;114909;-89
2022/07/01 03:33:41;;;;;;;2.13;1.50;;;17.30;91.80;;;17.92;58.93;98693.44;4976429;28;124229;-90
2022/07/01 03:36:08;;;;;;;2.87;1.30;;;17.30;91.80;;;17.91;59.06;98709.41;4984983;28;123351;-92
2022/07/01 03:38:35;;;;;;;1.93;1.30;;;17.30;91.70;;;17.90;58.88;98726.56;4975186;28;115057;-91
2022/07/01 03:41:02;;;;;;;2.53;1.40;;;17.30;91.70;;;17.86;58.87;98734.84;4980714;28;114114;-90
2022/07/01 03:43:29;;;;;;;1.20;0.93;;;17.30;91.70;;;17.79;58.90;98734.69;4988920;28;123134;-91
2022/07/01 03:45:55;;;;;;;1.47;1.10;;;17.20;91.60;;;17.74;58.97;98737.72;4991078;28;123358;-91
2022/07/01 03:48:22;;;;;;;1.07;0.97;;;17.20;91.60;;;17.73;58.98;98745.28;4978025;28;113996;-89
2022/07/01 03:50:48;;;;;;;1.43;1.00;;;17.20;91.60;;;17.71;58.97;98749.63;4972512;28;113931;-89
2022/07/01 03:56:00;;;;;;;1.30;1.10;;;17.20;91.60;;;17.73;58.79;98764.84;4994476;28;124459;-90
2022/07/01 03:58:27;;;;;;;1.30;1.20;;;17.20;91.60;;;17.76;59.05;98757.72;4976586;28;114333;-90
2022/07/01 04:00:53;;;;;;;1.03;0.93;;;17.20;91.60;;;17.80;58.92;98758.66;4983679;28;114196;-89
2022/07/01 04:03:20;;;;;;;1.00;0.90;;;17.20;91.60;;;17.85;58.61;98766.75;4970164;28;124569;-89
2022/07/01 04:05:46;;;;;;;1.47;1.00;;;17.30;91.60;;;17.83;58.72;98783.06;4973572;28;123630;-89
2022/07/01 04:08:14;;;;;;;2.43;1.10;;;17.30;91.60;;;17.76;58.62;98792.06;4969986;28;114312;-89
2022/07/01 04:10:41;;;;;;;1.57;1.10;;;17.20;91.60;;;17.72;58.95;98796.75;4974667;28;113761;-90
2022/07/01 04:13:08;;;;;;;1.27;0.97;;;17.20;91.60;;;17.69;59.04;98803.06;4981541;28;124089;-89
2022/07/01 04:15:34;;;;;;;1.40;1.13;;;17.20;91.70;;;17.68;59.33;98807.03;4986815;28;124161;-89
2022/07/01 04:18:01;;;;;;;1.20;1.10;;;17.20;91.80;;;17.69;59.22;98824.63;4978314;28;115290;-90
2022/07/01 04:20:27;;;;;;;1.10;1.00;;;17.20;91.80;;;17.69;59.37;98819.81;4985483;28;114874;-89
2022/07/01 04:22:55;;;;;;;1.13;1.03;;;17.10;91.90;;;17.70;59.63;98823.44;4980967;28;124117;-90
2022/07/01 04:25:22;;;;;;;1.57;1.07;;;17.10;92.00;;;17.69;59.43;98835.78;4983389;28;124324;-90
2022/07/01 04:27:48;;;;;;;1.30;0.80;;;17.10;92.00;;;17.69;59.59;98841.38;4981016;28;113717;-89
2022/07/01 04:30:15;;;;;;;1.10;1.00;;;17.10;92.00;;;17.70;59.52;98854.97;4982977;28;114118;-90
2022/07/01 04:32:41;;;;;;;1.50;1.00;;;17.10;92.10;;;17.67;59.48;98850.09;4980017;28;124020;-89
2022/07/01 04:35:10;;;;;;;1.17;1.00;;;17.10;92.10;;;17.65;59.45;98839.31;4972327;28;124488;-89
2022/07/01 04:37:36;;;;;;;1.00;0.90;;;17.10;92.10;;;17.66;59.41;98843.72;4984826;28;114237;-89
2022/07/01 04:40:04;;;;;;;3.70;1.27;;;17.10;92.10;;;17.66;59.64;98843.72;4973942;28;113822;-90
2022/07/01 04:42:31;;;;;;;1.20;1.10;;;17.10;92.20;;;17.64;59.42;98832.06;4976988;28;124309;-89
2022/07/01 04:44:57;;;;;;;1.50;1.10;;;17.10;92.10;;;17.64;59.19;98829.28;4970573;28;123899;-91
2022/07/01 04:47:24;;;;;;;1.63;1.00;;;17.10;92.10;;;17.63;59.51;98836.06;4970489;28;114367;-90
2022/07/01 04:49:50;;;;;;;1.50;1.00;;;17.10;92.10;;;17.63;59.62;98832.44;4976990;28;114350;-90
2022/07/01 04:52:17;;;;;;;1.60;1.33;;;17.10;92.10;;;17.66;59.83;98846.50;4972799;28;124647;-90
2022/07/01 04:54:43;;;;;;;1.20;0.83;;;17.10;92.20;;;17.70;59.63;98843.78;4977311;28;123851;-89
2022/07/01 04:57:10;;;;;;;0.90;0.80;;;17.10;92.20;;;17.72;59.50;98835.88;4974817;28;114306;-91
2022/07/01 04:59:36;;;;;;;1.00;0.80;;;17.10;92.20;;;17.74;59.37;98832.72;4971646;28;113750;-90
2022/07/01 05:02:03;;;;;;;2.27;1.00;;;17.20;92.20;;;17.73;59.52;98850.66;4977922;28;123837;-89
2022/07/01 05:04:30;;;;;;;1.00;0.90;;;17.10;92.10;;;17.73;59.23;98850.66;4977006;28;123118;-90
2022/07/01 05:06:57;;;;;;;1.57;1.10;;;17.10;92.10;;;17.73;59.35;98843.09;4970773;28;114496;-90
2022/07/01 05:09:24;;;;;;;1.47;1.03;;;17.20;92.20;;;17.77;59.34;98849.59;4970345;28;114761;-91
2022/07/01 05:11:50;;;;;;;2.13;1.10;;;17.20;92.20;;;17.79;59.42;98850.06;4978474;28;124075;-90
2022/07/01 05:14:17;;;;;;;1.80;1.17;;;17.20;92.30;;;17.76;59.45;98861.09;4984000;28;123903;-89
2022/07/01 05:16:43;;;;;;;1.20;1.00;;;17.20;92.30;;;17.75;59.74;98873.47;4974574;28;115332;-91
2022/07/01 05:22:00;;;;;;;1.17;1.07;;;17.20;92.30;;;17.63;59.69;98864.00;4980970;28;125341;-88
2022/07/01 05:24:31;;;;;;;1.23;1.00;;;17.10;92.30;;;17.60;60.04;98873.09;4984163;28;124335;-89
2022/07/01 05:27:00;;;;;;;1.00;0.90;;;17.10;92.40;;;17.60;59.93;98855.53;4994869;28;115050;-88
2022/07/01 05:29:27;;;;;;;1.40;1.00;;;17.10;92.40;;;17.60;60.12;98844.34;4979353;28;113372;-89
2022/07/01 05:31:56;;;;;;;0.97;0.87;;;17.10;92.50;;;17.59;59.88;98845.50;4974972;28;123674;-96
2022/07/01 05:34:22;;;;;;;1.27;1.17;;;18.90;93.30;;;17.59;60.20;98851.91;4971896;28;123275;-87
2022/07/01 05:36:49;;;;;;;1.73;1.10;;;17.00;92.60;;;17.61;60.34;98845.97;4974193;28;114662;-87
2022/07/01 05:39:15;;;;;;;1.50;1.10;;;17.00;92.60;;;17.62;60.44;98848.41;4982788;28;114060;-88
2022/07/01 05:41:42;;;;;;;2.90;1.20;;;17.00;92.70;;;17.65;60.13;98849.66;4967927;28;123288;-88
2022/07/01 05:44:08;;;;;;;1.30;1.10;;;17.10;92.80;;;17.70;60.21;98854.16;4983919;28;123649;-88
2022/07/01 05:46:36;;;;;;;1.60;1.17;;;17.10;92.80;;;17.75;60.33;98856.69;4974415;28;114562;-89
2022/07/01 05:49:02;;;;;;;1.10;0.90;;;17.10;92.80;;;17.80;60.16;98848.91;4978629;28;114199;-87
2022/07/01 05:51:29;;;;;;;1.30;1.07;;;17.10;92.90;;;17.88;60.02;98861.06;4972655;28;125095;-88
2022/07/01 05:53:56;;;;;;;1.63;1.27;;;17.20;92.90;;;17.93;60.17;98860.00;4977102;28;125990;-88
2022/07/01 05:56:23;;;;;;;1.53;1.37;;;17.20;93.00;;;18.00;60.27;98868.56;4974539;28;114317;-88
2022/07/01 05:58:49;;;;;;;1.60;1.33;;;17.30;93.10;;;18.04;60.22;98864.69;4979971;28;115001;-89
2022/07/01 06:01:16;;;;;;;1.80;1.40;;;17.30;93.10;;;18.06;60.18;98855.94;4987012;28;124100;-90
2022/07/01 06:03:42;;;;;;;3.77;1.33;;;17.40;93.20;;;18.07;60.07;98858.38;4975855;28;123877;-88
2022/07/01 06:06:09;;;;;;;1.30;1.20;;;17.40;93.10;;;18.09;60.11;98850.44;4970936;28;115033;-87
2022/07/01 06:08:35;;;;;;;1.80;1.20;;;17.40;93.10;;;18.13;60.21;98858.91;4980180;28;113446;-88
2022/07/01 06:11:03;;;;;;;1.33;1.23;;;17.40;93.10;;;18.15;60.13;98850.16;4975360;28;124008;-88
2022/07/01 06:13:30;;;;;;;1.83;1.30;;;17.50;93.10;;;18.14;60.24;98859.75;4989044;28;123636;-88
2022/07/01 06:15:59;;;;;;;1.80;1.43;;;17.50;93.10;;;18.13;60.43;98863.69;4980933;28;114448;-88
2022/07/01 06:18:26;;;;;;;1.93;1.37;;;17.50;93.10;;;18.11;60.19;98864.06;4978009;28;113385;-88
2022/07/01 06:20:53;;;;;;;1.63;1.50;;;17.50;93.00;;;18.06;60.29;98867.13;4981400;28;124454;-88
2022/07/01 06:23:19;;;;;;;1.47;1.37;;;17.40;93.00;;;18.03;60.13;98890.22;4957793;28;122980;-87
2022/07/01 06:25:46;;;;;;;1.67;1.40;;;17.50;93.10;;;18.01;60.31;98890.56;4977557;28;113577;-86
2022/07/01 06:28:12;;;;;;;1.53;1.30;;;17.40;93.10;;;18.03;60.33;98896.63;4968615;28;114209;-86
2022/07/01 06:30:43;;;;;;;1.43;1.30;;;17.40;93.10;;;18.04;60.38;98891.84;4972875;28;124674;-88
2022/07/01 06:33:11;;;;;;;1.40;0.97;;;17.40;93.10;;;18.08;60.46;98881.53;4976122;28;124163;-88
2022/07/01 06:35:38;;;;;;;2.50;1.30;;;17.50;93.30;;;18.10;60.46;98882.81;4977249;28;114498;-87
2022/07/01 06:38:05;;;;;;;1.90;1.27;;;17.50;93.30;;;18.13;60.54;98884.06;4980302;28;114384;-88
2022/07/01 06:40:31;;;;;;;1.20;1.10;;;17.50;93.40;;;18.15;60.57;98892.13;4974596;28;124017;-87
2022/07/01 06:42:58;;;;;;;1.27;1.17;;;17.50;93.40;;;18.16;60.60;98900.16;4983559;28;123599;-88
2022/07/01 06:45:24;;;;;;;1.83;1.30;;;17.50;93.40;;;18.17;60.52;98909.34;4976790;28;116193;-89
2022/07/01 06:47:51;;;;;;;1.37;1.20;;;17.50;93.40;;;18.19;60.20;98909.78;4970308;28;114460;-88
2022/07/01 06:50:17;;;;;;;3.43;1.40;;;17.50;93.30;;;18.18;60.56;98903.38;4970265;28;123766;-88
2022/07/01 06:52:44;;;;;;;1.33;1.23;;;17.50;93.30;;;18.19;60.47;98901.38;4986322;28;124234;-89
2022/07/01 06:55:10;;;;;;;2.23;1.33;;;17.60;93.40;;;18.19;60.46;98904.19;4981672;28;114723;-91
2022/07/01 06:57:37;;;;;;;1.43;1.33;;;17.50;93.40;;;18.19;60.55;98915.38;4979824;28;113948;-88
2022/07/01 07:00:04;;;;;;;1.43;1.30;;;17.60;93.40;;;18.17;60.62;98917.75;4977375;28;123957;-90
2022/07/01 07:02:31;;;;;;;2.13;1.33;;;17.60;93.40;;;18.14;60.55;98918.47;4978021;28;123318;-90
2022/07/01 07:04:58;;;;;;;1.57;1.30;;;17.50;93.30;;;18.11;60.52;98928.38;4981701;28;114591;-88
2022/07/01 07:07:24;;;;;;;1.30;1.20;;;17.50;93.30;;;18.07;60.48;98928.25;4977412;28;113977;-87
2022/07/01 07:09:51;;;;;;;1.40;1.30;;;17.50;93.30;;;18.06;60.51;98925.84;4996648;28;123792;-88
2022/07/01 07:12:17;;;;;;;2.07;1.10;;;17.50;93.30;;;18.08;60.56;98940.25;4985182;28;124546;-90
2022/07/01 07:14:44;;;;;;;1.67;1.40;;;17.50;93.30;;;18.10;60.57;98940.72;4982761;28;114304;-89
2022/07/01 07:17:10;;;;;;;1.20;1.10;;;17.50;93.40;;;18.15;60.64;98942.44;4976291;28;113706;-88
2022/07/01 07:19:37;;;;;;;1.30;1.20;;;17.50;93.40;;;18.18;60.53;98941.72;4985659;28;124264;-90
2022/07/01 07:22:03;;;;;;;1.43;1.33;;;17.50;93.40;;;18.22;60.46;98937.03;4975655;28;124406;-89
2022/07/01 07:24:30;;;;;;;1.80;1.20;;;17.60;93.50;;;18.24;60.65;98941.13;4984422;28;114322;-88
2022/07/01 07:26:56;;;;;;;1.90;1.57;;;17.60;93.50;;;18.25;60.54;98941.91;4971555;28;114247;-88
2022/07/01 07:29:23;;;;;;;1.47;1.10;;;17.60;93.50;;;18.25;60.51;98944.72;4976964;28;124007;-90
2022/07/01 07:31:49;;;;;;;1.60;1.20;;;17.60;93.50;;;18.26;60.46;98954.72;4963991;28;122762;-88
2022/07/01 07:34:16;;;;;;;1.03;0.93;;;17.60;93.40;;;18.26;60.43;98951.91;4975503;28;115171;-89
2022/07/01 07:36:42;;;;;;;1.53;1.40;;;17.60;93.40;;;18.26;60.15;98949.94;4979211;28;114699;-90
2022/07/01 07:39:09;;;;;;;1.50;1.10;;;17.60;93.30;;;18.25;60.10;98945.53;4975620;28;124013;-90
2022/07/01 07:41:35;;;;;;;1.53;1.10;;;17.70;93.30;;;18.25;60.09;98942.72;4986667;28;122603;-88
2022/07/01 07:44:02;;;;;;;1.50;1.40;;;17.70;93.20;;;18.28;60.21;98952.38;4986272;28;114283;-88
2022/07/01 07:46:28;;;;;;;1.20;1.10;;;17.70;93.20;;;18.27;60.09;98951.56;4977675;28;114373;-88
2022/07/01 07:48:54;;;;;;;1.20;1.10;;;17.70;93.20;;;18.31;60.10;98946.06;4971445;28;124263;-88
2022/07/01 07:51:22;;;;;;;1.20;1.10;;;17.70;93.30;;;18.32;60.22;98937.31;4975490;28;123721;-88
2022/07/01 07:53:49;;;;;;;1.97;1.50;;;17.70;93.30;;;18.32;60.21;98942.06;4976314;28;114234;-87
2022/07/01 07:56:16;;;;;;;1.53;1.43;;;17.70;93.30;;;18.34;60.09;98942.53;4971905;28;114180;-88
2022/07/01 07:58:43;;;;;;;1.60;1.10;;;17.70;93.30;;;18.31;60.24;98952.47;4978368;28;124069;-87
2022/07/01 08:01:10;;;;;;;1.30;1.20;;;17.70;93.30;;;18.31;60.10;98946.88;4979716;28;122706;-87
2022/07/01 08:03:36;;;;;;;2.50;1.37;;;17.70;93.30;;;18.30;60.33;98939.66;4972568;28;114081;-89
2022/07/01 08:06:03;;;;;;;1.60;1.40;;;17.70;93.40;;;18.31;60.46;98946.06;4972308;28;114167;-89
2022/07/01 08:08:30;;;;;;;1.50;1.17;;;17.70;93.40;;;18.35;60.39;98952.56;4978409;28;124646;-88
2022/07/01 08:10:57;;;;;;;1.70;1.30;;;17.70;93.40;;;18.38;60.42;98956.63;4984586;28;124258;-87
2022/07/01 08:13:24;;;;;;;1.30;1.20;;;17.70;93.40;;;18.41;60.34;98962.31;4978795;28;114694;-89
2022/07/01 08:15:50;;;;;;;1.20;0.97;;;17.80;93.40;;;18.42;60.06;98965.91;4982640;28;113261;-88
2022/07/01 08:18:17;;;;;;;1.80;1.40;;;17.80;93.40;;;18.40;60.12;98959.88;4977084;28;124092;-89
2022/07/01 08:20:43;;;;;;;1.33;1.20;;;17.80;93.30;;;18.37;59.99;98964.19;4989008;28;123275;-87
2022/07/01 08:23:10;;;;;;;1.30;1.20;;;17.80;93.20;;;18.36;60.20;98965.38;4982353;28;115065;-86
2022/07/01 08:25:37;;;;;;;1.20;1.10;;;17.80;93.20;;;18.37;60.03;98972.59;4974147;28;115482;-88
2022/07/01 08:28:04;;;;;;;1.37;1.23;;;17.90;93.20;;;18.35;60.04;98977.75;5001085;28;122113;-89
2022/07/01 08:30:30;;;;;;;1.00;0.90;;;17.80;93.10;;;18.29;60.09;98977.19;4977025;28;123510;-86
2022/07/01 08:32:57;;;;;;;1.10;1.00;;;17.80;93.10;;;18.24;60.07;98982.22;4978763;28;114440;-85
2022/07/01 08:35:23;;;;;;;1.40;1.27;;;17.70;93.10;;;18.20;60.14;98989.72;4979038;28;113963;-88
2022/07/01 08:37:50;;;;;;;1.83;1.30;;;17.70;93.10;;;18.18;60.19;99000.44;4978072;28;123777;-89
2022/07/01 08:40:16;;;;;;;1.30;1.20;;;17.70;93.10;;;18.14;60.33;98991.97;4975678;28;124005;-86
2022/07/01 08:42:43;;;;;;;1.00;0.90;;;17.60;93.10;;;18.15;60.27;98990.00;4971327;28;114244;-89
2022/07/01 08:45:10;;;;;;;1.93;1.50;;;17.60;93.20;;;18.17;60.19;98996.03;4990982;28;113168;-85
2022/07/01 08:47:51;;;;;;;1.47;1.27;;;17.60;93.20;;;18.17;60.16;99007.22;4982650;28;124159;-86
2022/07/01 08:50:17;;;;;;;1.60;1.10;;;17.60;93.20;;;18.16;60.31;99003.63;4979125;28;122637;-88
2022/07/01 08:52:44;;;;;;;2.27;1.53;;;17.60;93.20;;;18.19;60.28;99005.69;4997484;28;113756;-87
2022/07/01 08:55:10;;;;;;;2.03;1.20;;;17.60;93.20;;;18.21;60.22;99003.34;4985027;28;112983;-86
2022/07/01 08:57:37;;;;;;;1.43;1.30;;;17.00;93.00;;;18.24;60.23;99007.41;4977249;28;124450;-88
2022/07/01 09:00:10;;;;;;;1.57;1.30;;;17.70;93.60;;;18.26;60.31;99010.66;4972863;28;124030;-84
2022/07/01 09:02:56;;;;;;;1.73;1.30;;;17.70;93.30;;;18.30;60.18;99014.38;4973517;28;114222;-85
2022/07/01 09:05:26;;;;;;;1.20;1.10;;;17.70;93.30;;;18.33;60.17;99008.06;4982106;28;113897;-86
2022/07/01 09:08:01;;;;;;;1.10;1.00;;;17.70;93.30;;;18.36;59.96;99012.94;4980941;28;124050;-85
2022/07/01 09:10:34;;;;;;;1.23;1.13;;;17.70;93.40;;;18.39;60.12;99008.59;4976915;28;122220;-88
2022/07/01 09:13:09;;;;;;;1.30;1.10;;;17.70;93.70;;;18.41;60.06;99014.66;4971161;28;115966;-88
2022/07/01 09:15:37;;;;;;;1.57;1.37;;;17.80;93.40;;;18.41;60.12;99012.66;4974317;28;114408;-87
2022/07/01 09:18:15;;;;;;;1.13;1.00;;;17.80;93.40;;;18.39;60.33;99019.78;4983800;28;123538;-86
2022/07/01 09:20:45;;;;;;;1.40;1.30;;;17.80;93.40;;;18.35;59.99;99008.53;4968423;28;123301;-89
2022/07/01 09:23:15;;;;;;;1.40;1.30;;;17.80;93.40;;;18.35;60.26;98972.16;4972247;28;114343;-87
2022/07/01 09:25:45;;;;;;;1.80;1.20;;;17.80;93.40;;;18.32;60.35;98982.09;4971940;28;112878;-88
2022/07/01 09:28:17;;;;;;;1.80;1.57;;;17.80;93.40;;;18.32;60.55;99003.63;4967240;28;124304;-87
2022/07/01 09:30:50;;;;;;;2.90;1.73;;;17.70;93.60;;;18.26;60.89;99033.03;4980383;28;123883;-87
2022/07/01 09:33:29;;;;;;;1.40;1.30;;;17.70;93.60;;;18.20;60.87;99029.69;4969385;28;114289;-87
2022/07/01 09:35:57;;;;;;;2.37;1.40;;;17.70;93.60;;;18.15;60.72;99026.34;4971808;28;113021;-84
2022/07/01 09:38:25;;;;;;;1.70;1.13;;;17.60;93.50;;;18.09;60.82;99028.59;4974043;28;124374;-88
2022/07/01 09:40:57;;;;;;;2.50;1.30;;;17.60;93.50;;;18.07;60.82;99031.72;4967798;28;124584;-87
2022/07/01 09:43:35;;;;;;;1.20;1.00;;;17.60;93.50;;;18.06;60.85;99029.31;4973400;28;114732;-86
2022/07/01 09:46:01;;;;;;;2.30;1.00;;;17.50;93.50;;;18.07;60.79;99017.75;4970272;28;113933;-86
2022/07/01 09:48:34;;;;;;;1.40;1.03;;;17.50;93.50;;;18.12;60.63;99010.28;4970382;28;124141;-86
2022/07/01 09:51:03;;;;;;;2.13;1.30;;;17.60;93.60;;;18.11;60.73;99017.88;4969432;28;123896;-88
2022/07/01 09:53:30;;;;;;;1.47;1.37;;;17.50;93.60;;;18.09;60.76;99023.81;4975756;28;114116;-87
2022/07/01 09:55:57;;;;;;;2.30;1.53;;;17.50;93.60;;;18.08;60.55;99005.41;4981420;28;113060;-86
2022/07/01 09:58:24;;;;;;;1.53;1.43;;;17.50;93.60;;;18.07;60.83;99014.94;4968331;28;123742;-86
2022/07/01 10:00:53;;;;;;;1.93;1.40;;;17.50;93.60;;;18.05;60.66;99017.31;4972271;28;123474;-88
2022/07/01 10:03:21;;;;;;;1.93;1.20;;;17.50;93.60;;;18.05;60.54;99020.09;4966906;28;115241;-87
2022/07/01 10:05:54;;;;;;;1.63;1.20;;;17.50;93.50;;;18.03;60.75;99027.22;4973400;28;113958;-85
2022/07/01 10:08:41;;;;;;;1.87;1.30;;;17.60;93.60;;;18.00;60.67;99025.13;4971556;28;123263;-85
2022/07/01 10:11:52;;;;;;;1.10;1.00;;;17.50;93.50;;;18.01;60.90;99027.56;4980104;28;123756;-85
2022/07/01 10:14:20;;;;;;;3.50;1.20;;;17.50;93.50;;;18.05;60.56;99039.69;4962199;28;113535;-87
2022/07/01 10:16:50;;;;;;;1.67;1.10;;;17.50;93.60;;;18.09;60.54;99042.56;4971393;28;112975;-87
2022/07/01 10:19:31;;;;;;;1.10;1.00;;;17.50;93.50;;;18.14;60.41;99041.50;4978879;28;122699;-88